createdAt,value
2018-08-03T00:02:25.296Z,22.34
2018-08-03T00:04:53.780Z,22.34
2018-08-03T00:07:22.225Z,22.22
2018-08-03T00:09:51.080Z,22.19
2018-08-03T00:12:19.486Z,22.18
2018-08-03T00:14:47.925Z,22.10
2018-08-03T00:17:16.398Z,22.08
2018-08-03T00:19:44.872Z,22.09
2018-08-03T00:22:13.309Z,21.99
2018-08-03T00:24:41.815Z,22.00
2018-08-03T00:27:10.273Z,22.07
2018-08-03T00:29:38.665Z,22.08
2018-08-03T00:32:07.103Z,22.11
2018-08-03T00:34:35.529Z,22.02
2018-08-03T00:37:03.942Z,22.03
2018-08-03T00:39:32.414Z,22.00
2018-08-03T00:42:00.885Z,21.90
2018-08-03T00:44:29.358Z,21.87
2018-08-03T00:46:57.812Z,21.90
2018-08-03T00:49:26.292Z,21.86
2018-08-03T00:51:54.736Z,21.77
2018-08-03T00:54:23.176Z,21.62
2018-08-03T00:56:51.637Z,21.64
2018-08-03T00:59:20.093Z,21.65
2018-08-03T01:01:48.672Z,21.64
2018-08-03T01:04:17.053Z,21.51
2018-08-03T01:06:45.598Z,21.58
2018-08-03T01:09:14.420Z,21.55
2018-08-03T01:11:42.821Z,21.51
2018-08-03T01:14:11.650Z,21.55
2018-08-03T01:16:42.179Z,21.62
2018-08-03T01:19:13.353Z,21.55
2018-08-03T01:21:42.441Z,21.54
2018-08-03T01:24:11.001Z,21.46
2018-08-03T01:26:39.515Z,21.48
2018-08-03T01:29:07.943Z,21.48
2018-08-03T01:31:36.441Z,21.42
2018-08-03T01:34:04.895Z,21.34
2018-08-03T01:36:33.302Z,21.39
2018-08-03T01:39:01.734Z,21.39
2018-08-03T01:41:30.173Z,21.34
2018-08-03T01:43:58.555Z,21.40
2018-08-03T01:46:27.037Z,21.32
2018-08-03T01:48:55.418Z,21.33
2018-08-03T01:51:23.829Z,21.18
2018-08-03T01:53:52.237Z,21.18
2018-08-03T01:56:20.713Z,21.09
2018-08-03T01:58:49.137Z,21.09
2018-08-03T02:01:17.579Z,20.98
2018-08-03T02:03:45.987Z,20.98
2018-08-03T02:06:14.462Z,20.91
2018-08-03T02:08:42.921Z,21.02
2018-08-03T02:11:11.405Z,21.00
2018-08-03T02:13:39.909Z,20.96
2018-08-03T02:16:08.469Z,20.99
2018-08-03T02:18:36.913Z,20.95
2018-08-03T02:21:05.353Z,20.90
2018-08-03T02:23:33.788Z,20.79
2018-08-03T02:26:02.225Z,20.83
2018-08-03T02:28:30.662Z,20.78
2018-08-03T02:30:59.122Z,20.75
2018-08-03T02:33:27.569Z,20.78
2018-08-03T02:35:56.027Z,20.69
2018-08-03T02:38:24.474Z,20.68
2018-08-03T02:40:52.961Z,20.65
2018-08-03T02:43:21.396Z,20.65
2018-08-03T02:45:49.877Z,20.52
2018-08-03T02:48:18.454Z,20.48
2018-08-03T02:50:46.892Z,20.42
2018-08-03T02:53:15.356Z,20.44
2018-08-03T02:55:43.951Z,20.40
2018-08-03T02:58:12.600Z,20.41
2018-08-03T03:00:41.120Z,20.33
2018-08-03T03:03:09.658Z,20.24
2018-08-03T03:05:38.096Z,20.19
2018-08-03T03:08:06.674Z,20.16
2018-08-03T03:10:35.089Z,20.16
2018-08-03T03:13:03.553Z,20.06
2018-08-03T03:15:32.023Z,19.99
2018-08-03T03:18:00.475Z,20.04
2018-08-03T03:20:28.900Z,20.04
2018-08-03T03:22:57.375Z,20.09
2018-08-03T03:25:25.861Z,20.16
2018-08-03T03:27:54.322Z,20.17
2018-08-03T03:30:22.793Z,20.09
2018-08-03T03:32:51.285Z,20.03
2018-08-03T03:35:19.792Z,19.96
2018-08-03T03:37:48.273Z,19.97
2018-08-03T03:40:21.010Z,19.95
2018-08-03T03:42:49.482Z,19.97
2018-08-03T03:45:17.909Z,19.93
2018-08-03T03:47:46.407Z,19.97
2018-08-03T03:50:14.922Z,19.92
2018-08-03T03:52:43.336Z,19.89
2018-08-03T03:55:11.773Z,19.87
2018-08-03T03:57:40.189Z,19.83
2018-08-03T04:00:08.997Z,19.85
2018-08-03T04:02:37.925Z,19.86
2018-08-03T04:05:06.649Z,19.77
2018-08-03T04:07:35.087Z,19.73
2018-08-03T04:10:03.678Z,19.74
2018-08-03T04:12:32.155Z,19.77
2018-08-03T04:15:00.590Z,19.78
2018-08-03T04:17:29.054Z,19.74
2018-08-03T04:19:57.461Z,19.73
2018-08-03T04:22:25.889Z,19.76
2018-08-03T04:24:54.622Z,19.74
2018-08-03T04:27:23.025Z,19.69
2018-08-03T04:29:51.537Z,19.63
2018-08-03T04:32:19.954Z,19.69
2018-08-03T04:34:48.373Z,19.67
2018-08-03T04:37:16.822Z,19.65
2018-08-03T04:39:45.245Z,19.69
2018-08-03T04:42:13.754Z,19.73
2018-08-03T04:44:42.183Z,19.77
2018-08-03T04:47:10.792Z,19.83
2018-08-03T04:49:39.196Z,19.95
2018-08-03T04:52:07.897Z,19.99
2018-08-03T04:54:36.319Z,20.08
2018-08-03T04:57:04.777Z,20.19
2018-08-03T04:59:33.189Z,20.34
2018-08-03T05:02:01.665Z,20.36
2018-08-03T05:04:30.113Z,20.38
2018-08-03T05:06:58.539Z,20.47
2018-08-03T05:09:27.007Z,20.50
2018-08-03T05:11:55.502Z,20.65
2018-08-03T05:14:23.927Z,20.50
2018-08-03T05:16:52.357Z,20.48
2018-08-03T05:19:20.841Z,20.51
2018-08-03T05:21:49.281Z,20.62
2018-08-03T05:24:17.791Z,20.77
2018-08-03T05:26:46.881Z,20.82
2018-08-03T05:29:15.314Z,20.81
2018-08-03T05:31:43.713Z,20.96
2018-08-03T05:34:12.117Z,21.02
2018-08-03T05:36:40.530Z,21.15
2018-08-03T05:39:10.490Z,21.22
2018-08-03T05:41:39.465Z,21.39
2018-08-03T05:44:08.415Z,21.68
2018-08-03T05:46:36.890Z,21.66
2018-08-03T05:49:05.806Z,21.70
2018-08-03T05:51:34.241Z,21.81
2018-08-03T05:54:02.657Z,22.03
2018-08-03T05:56:31.138Z,21.99
2018-08-03T05:58:59.701Z,22.13
2018-08-03T06:01:28.163Z,22.20
2018-08-03T06:03:56.678Z,22.18
2018-08-03T06:06:25.067Z,22.29
2018-08-03T06:08:53.493Z,22.38
2018-08-03T06:11:21.922Z,22.68
2018-08-03T06:13:50.385Z,23.00
2018-08-03T06:16:18.861Z,23.07
2018-08-03T06:18:47.373Z,22.90
2018-08-03T06:21:15.801Z,22.69
2018-08-03T06:23:44.260Z,22.79
2018-08-03T06:26:12.729Z,22.96
2018-08-03T06:28:41.197Z,22.97
2018-08-03T06:31:09.641Z,23.16
2018-08-03T06:33:38.139Z,23.25
2018-08-03T06:36:06.761Z,23.30
2018-08-03T06:38:35.185Z,23.56
2018-08-03T06:41:03.665Z,23.40
2018-08-03T06:43:32.124Z,23.78
2018-08-03T06:46:00.566Z,23.99
2018-08-03T06:48:29.115Z,24.10
2018-08-03T06:50:57.482Z,24.23
2018-08-03T06:53:26.004Z,24.27
2018-08-03T06:55:54.892Z,24.17
2018-08-03T06:58:23.308Z,24.63
2018-08-03T07:00:51.768Z,24.81
2018-08-03T07:03:20.192Z,24.64
2018-08-03T07:05:48.653Z,24.92
2018-08-03T07:08:17.050Z,24.80
2018-08-03T07:10:45.530Z,24.88
2018-08-03T07:13:13.997Z,25.23
2018-08-03T07:15:42.629Z,25.25
2018-08-03T07:18:11.836Z,25.74
2018-08-03T07:20:40.259Z,25.36
2018-08-03T07:23:09.937Z,25.63
2018-08-03T07:25:41.780Z,26.12
2018-08-03T07:28:10.274Z,26.04
2018-08-03T07:30:38.773Z,26.10
2018-08-03T07:33:07.245Z,26.15
2018-08-03T07:35:36.227Z,26.38
2018-08-03T07:38:04.699Z,26.19
2018-08-03T07:40:33.197Z,26.30
2018-08-03T07:43:01.632Z,26.58
2018-08-03T07:45:30.089Z,26.85
2018-08-03T07:47:58.517Z,26.18
2018-08-03T07:50:27.003Z,26.65
2018-08-03T07:52:55.469Z,26.44
2018-08-03T07:55:23.918Z,26.91
2018-08-03T07:57:52.336Z,26.91
2018-08-03T08:00:20.780Z,26.72
2018-08-03T08:02:49.205Z,27.06
2018-08-03T08:05:18.737Z,27.09
2018-08-03T08:07:48.639Z,27.22
2018-08-03T08:10:17.113Z,27.27
2018-08-03T08:12:46.604Z,27.54
2018-08-03T08:15:15.094Z,27.49
2018-08-03T08:17:43.521Z,27.86
2018-08-03T08:20:12.001Z,27.73
2018-08-03T08:22:40.417Z,27.78
2018-08-03T08:25:08.845Z,28.07
2018-08-03T08:27:37.310Z,27.93
2018-08-03T08:30:06.230Z,28.14
2018-08-03T08:32:34.659Z,28.22
2018-08-03T08:35:03.170Z,28.05
2018-08-03T08:37:31.603Z,28.33
2018-08-03T08:40:00.057Z,28.77
2018-08-03T08:42:28.459Z,28.84
2018-08-03T08:44:56.894Z,29.27
2018-08-03T08:47:25.288Z,29.30
2018-08-03T08:49:53.715Z,29.32
2018-08-03T08:52:22.157Z,29.47
2018-08-03T08:54:50.961Z,29.73
2018-08-03T08:57:19.346Z,29.61
2018-08-03T08:59:47.763Z,28.95
2018-08-03T09:02:16.133Z,28.51
2018-08-03T09:04:44.538Z,29.12
2018-08-03T09:07:12.950Z,28.82
2018-08-03T09:09:41.358Z,29.32
2018-08-03T09:12:10.002Z,29.31
2018-08-03T09:14:38.415Z,29.57
2018-08-03T09:17:06.857Z,29.70
2018-08-03T09:19:35.235Z,29.50
2018-08-03T09:22:03.669Z,29.65
2018-08-03T09:24:32.070Z,29.58
2018-08-03T09:27:00.496Z,29.79
2018-08-03T09:29:28.895Z,29.77
2018-08-03T09:31:57.348Z,29.98
2018-08-03T09:34:25.743Z,29.74
2018-08-03T09:36:54.182Z,29.51
2018-08-03T09:39:22.549Z,29.96
2018-08-03T09:41:50.991Z,29.75
2018-08-03T09:44:19.492Z,29.71
2018-08-03T09:46:47.889Z,30.05
2018-08-03T09:49:16.286Z,30.27
2018-08-03T09:51:44.648Z,30.63
2018-08-03T09:54:13.056Z,30.80
2018-08-03T09:56:41.527Z,30.66
2018-08-03T09:59:09.869Z,30.90
2018-08-03T10:01:38.274Z,31.16
2018-08-03T10:04:06.702Z,30.50
2018-08-03T10:06:35.143Z,30.57
2018-08-03T10:09:03.674Z,30.90
2018-08-03T10:11:32.087Z,31.10
2018-08-03T10:14:00.473Z,31.43
2018-08-03T10:16:28.981Z,31.62
2018-08-03T10:18:57.462Z,31.62
2018-08-03T10:21:25.890Z,32.04
2018-08-03T10:23:54.264Z,31.67
2018-08-03T10:26:22.774Z,31.46
2018-08-03T10:28:51.225Z,31.65
2018-08-03T10:31:19.719Z,32.00
2018-08-03T10:33:48.081Z,32.06
2018-08-03T10:36:16.523Z,32.42
2018-08-03T10:38:44.944Z,32.60
2018-08-03T10:41:13.405Z,32.66
2018-08-03T10:43:41.801Z,32.48
2018-08-03T10:46:10.373Z,32.41
2018-08-03T10:48:38.769Z,32.51
2018-08-03T10:51:07.746Z,32.66
2018-08-03T10:53:36.185Z,32.53
2018-08-03T10:56:04.694Z,32.96
2018-08-03T10:58:33.186Z,32.76
2018-08-03T11:01:01.595Z,32.71
2018-08-03T11:03:30.266Z,32.69
2018-08-03T11:05:58.670Z,32.58
2018-08-03T11:08:27.114Z,32.66
2018-08-03T11:10:56.153Z,32.74
2018-08-03T11:13:24.569Z,32.98
2018-08-03T11:15:52.966Z,32.75
2018-08-03T11:18:21.347Z,33.20
2018-08-03T11:20:49.763Z,32.99
2018-08-03T11:23:18.153Z,32.95
2018-08-03T11:25:46.549Z,33.08
2018-08-03T11:28:15.013Z,33.70
2018-08-03T11:30:43.414Z,33.91
2018-08-03T11:33:11.840Z,33.57
2018-08-03T11:35:41.093Z,33.32
2018-08-03T11:38:09.520Z,33.22
2018-08-03T11:40:37.977Z,33.72
2018-08-03T11:43:06.429Z,33.94
2018-08-03T11:45:34.825Z,34.06
2018-08-03T11:48:03.286Z,34.09
2018-08-03T11:50:31.701Z,34.35
2018-08-03T11:53:00.172Z,34.25
2018-08-03T11:55:29.013Z,33.98
2018-08-03T11:57:57.601Z,33.97
2018-08-03T12:00:26.868Z,34.20
2018-08-03T12:02:56.062Z,34.07
2018-08-03T12:05:24.927Z,34.26
2018-08-03T12:07:53.459Z,34.29
2018-08-03T12:10:21.909Z,34.65
2018-08-03T12:12:50.308Z,34.40
2018-08-03T12:15:19.349Z,34.23
2018-08-03T12:17:47.835Z,34.02
2018-08-03T12:20:16.245Z,34.12
2018-08-03T12:22:44.653Z,34.69
2018-08-03T12:25:13.098Z,34.54
2018-08-03T12:27:41.574Z,35.02
2018-08-03T12:30:09.978Z,35.49
2018-08-03T12:32:38.387Z,35.23
2018-08-03T12:35:06.946Z,35.08
2018-08-03T12:37:35.486Z,34.98
2018-08-03T12:40:03.969Z,35.15
2018-08-03T12:42:32.430Z,35.69
2018-08-03T12:45:00.836Z,35.80
2018-08-03T12:47:29.253Z,35.35
2018-08-03T12:49:57.641Z,35.87
2018-08-03T12:52:26.087Z,36.18
2018-08-03T12:54:54.636Z,35.88
2018-08-03T12:57:23.029Z,36.06
2018-08-03T12:59:51.504Z,35.97
2018-08-03T13:02:19.975Z,36.21
2018-08-03T13:04:48.461Z,36.44
2018-08-03T13:07:16.988Z,37.15
2018-08-03T13:09:45.585Z,37.22
2018-08-03T13:12:14.044Z,37.44
2018-08-03T13:14:42.525Z,37.74
2018-08-03T13:17:10.954Z,38.23
2018-08-03T13:19:39.392Z,38.93
2018-08-03T13:22:20.117Z,39.49
2018-08-03T13:24:48.599Z,41.56
2018-08-03T13:27:17.196Z,40.41
2018-08-03T13:29:45.658Z,39.50
2018-08-03T13:32:14.124Z,40.55
2018-08-03T13:34:42.599Z,41.68
2018-08-03T13:37:11.029Z,42.31
2018-08-03T13:39:39.593Z,42.53
2018-08-03T13:42:08.046Z,42.08
2018-08-03T13:44:36.557Z,42.46
2018-08-03T13:47:05.050Z,42.01
2018-08-03T13:49:33.505Z,42.25
2018-08-03T13:52:01.937Z,42.81
2018-08-03T13:54:30.457Z,43.91
2018-08-03T13:56:59.021Z,43.30
2018-08-03T13:59:28.214Z,44.48
2018-08-03T14:02:11.529Z,44.56
2018-08-03T14:04:40.149Z,44.64
2018-08-03T14:07:08.794Z,44.56
2018-08-03T14:09:37.294Z,45.05
2018-08-03T14:12:06.080Z,45.36
2018-08-03T14:14:34.650Z,44.36
2018-08-03T14:17:03.228Z,45.20
2018-08-03T14:19:31.814Z,44.66
2018-08-03T14:22:00.473Z,45.44
2018-08-03T14:24:28.958Z,46.19
2018-08-03T14:26:57.377Z,46.11
2018-08-03T14:29:25.814Z,46.37
2018-08-03T14:31:54.344Z,47.95
2018-08-03T14:34:22.729Z,44.77
2018-08-03T14:36:51.122Z,45.57
2018-08-03T14:39:19.517Z,45.56
2018-08-03T14:41:47.961Z,45.57
2018-08-03T14:44:16.420Z,44.73
2018-08-03T14:46:44.881Z,44.40
2018-08-03T14:49:13.353Z,45.56
2018-08-03T14:51:41.753Z,45.59
2018-08-03T14:54:10.165Z,45.54
2018-08-03T14:56:38.606Z,45.40
2018-08-03T14:59:07.254Z,45.81
2018-08-03T15:01:35.692Z,46.59
2018-08-03T15:04:04.114Z,46.08
2018-08-03T15:06:32.506Z,46.06
2018-08-03T15:09:00.959Z,45.77
2018-08-03T15:11:29.346Z,45.73
2018-08-03T15:13:57.767Z,45.82
2018-08-03T15:16:26.175Z,44.72
2018-08-03T15:18:56.457Z,44.97
2018-08-03T15:21:24.920Z,44.51
2018-08-03T15:23:53.285Z,44.11
2018-08-03T15:26:21.753Z,43.82
2018-08-03T15:28:50.223Z,43.46
2018-08-03T15:31:18.613Z,44.69
2018-08-03T15:33:46.996Z,44.24
2018-08-03T15:36:15.497Z,45.58
2018-08-03T15:38:43.895Z,45.81
2018-08-03T15:41:12.397Z,44.86
2018-08-03T15:43:40.849Z,44.92
2018-08-03T15:46:09.347Z,45.11
2018-08-03T15:48:37.771Z,45.88
2018-08-03T15:51:06.310Z,45.01
2018-08-03T15:53:34.733Z,43.71
2018-08-03T15:56:03.180Z,43.62
2018-08-03T15:58:31.689Z,43.63
2018-08-03T16:01:00.106Z,43.86
2018-08-03T16:03:28.545Z,42.88
2018-08-03T16:05:56.997Z,42.84
2018-08-03T16:08:25.433Z,42.86
2018-08-03T16:10:54.017Z,42.53
2018-08-03T16:13:22.433Z,44.01
2018-08-03T16:15:50.872Z,44.98
2018-08-03T16:18:19.306Z,43.10
2018-08-03T16:20:47.805Z,42.41
2018-08-03T16:23:16.238Z,42.19
2018-08-03T16:25:44.693Z,42.95
2018-08-03T16:28:13.120Z,42.42
2018-08-03T16:30:41.575Z,42.90
2018-08-03T16:33:10.019Z,42.54
2018-08-03T16:35:38.662Z,41.35
2018-08-03T16:38:07.252Z,41.79
2018-08-03T16:40:35.683Z,42.70
2018-08-03T16:43:04.114Z,42.68
2018-08-03T16:45:32.560Z,42.00
2018-08-03T16:48:01.020Z,41.11
2018-08-03T16:50:29.565Z,40.68
2018-08-03T16:52:57.969Z,40.36
2018-08-03T16:55:26.397Z,42.35
2018-08-03T16:57:54.834Z,42.69
2018-08-03T17:00:23.242Z,42.23
2018-08-03T17:02:51.635Z,41.70
2018-08-03T17:05:20.119Z,41.68
2018-08-03T17:07:48.501Z,40.83
2018-08-03T17:10:16.916Z,41.21
2018-08-03T17:12:45.333Z,41.77
2018-08-03T17:15:13.761Z,40.35
2018-08-03T17:17:42.190Z,39.24
2018-08-03T17:20:10.624Z,37.39
2018-08-03T17:22:39.017Z,36.56
2018-08-03T17:25:07.430Z,36.58
2018-08-03T17:27:35.844Z,36.01
2018-08-03T17:30:04.962Z,35.98
2018-08-03T17:32:33.416Z,35.64
2018-08-03T17:35:01.850Z,35.68
2018-08-03T17:37:30.240Z,35.79
2018-08-03T17:39:58.617Z,35.44
2018-08-03T17:42:27.076Z,35.32
2018-08-03T17:44:55.467Z,35.22
2018-08-03T17:47:23.942Z,35.04
2018-08-03T17:49:52.368Z,35.25
2018-08-03T17:52:20.766Z,35.09
2018-08-03T17:54:49.210Z,34.91
2018-08-03T17:57:17.601Z,34.72
2018-08-03T17:59:46.039Z,34.52
2018-08-03T18:02:14.824Z,34.55
2018-08-03T18:04:43.209Z,34.53
2018-08-03T18:07:11.642Z,34.24
2018-08-03T18:09:40.046Z,33.81
2018-08-03T18:12:08.503Z,33.92
2018-08-03T18:14:36.944Z,33.78
2018-08-03T18:17:05.382Z,33.71
2018-08-03T18:19:33.898Z,33.63
2018-08-03T18:22:02.321Z,33.97
2018-08-03T18:24:30.789Z,33.75
2018-08-03T18:26:59.207Z,33.60
2018-08-03T18:29:27.609Z,33.43
2018-08-03T18:31:56.022Z,33.52
2018-08-03T18:34:24.473Z,33.38
2018-08-03T18:36:52.874Z,33.01
2018-08-03T18:39:21.949Z,33.05
2018-08-03T18:41:50.928Z,33.00
2018-08-03T18:44:19.349Z,32.79
2018-08-03T18:46:47.757Z,32.60
2018-08-03T18:49:16.202Z,32.68
2018-08-03T18:51:44.581Z,32.48
2018-08-03T18:54:13.005Z,32.41
2018-08-03T18:56:41.380Z,32.25
2018-08-03T18:59:09.826Z,32.18
2018-08-03T19:01:38.337Z,32.05
2018-08-03T19:04:06.761Z,32.03
2018-08-03T19:06:35.184Z,31.96
2018-08-03T19:09:04.830Z,31.80
2018-08-03T19:11:33.235Z,31.74
2018-08-03T19:14:01.653Z,31.67
2018-08-03T19:16:30.109Z,31.64
2018-08-03T19:18:58.749Z,31.48
2018-08-03T19:21:27.128Z,31.33
2018-08-03T19:23:55.552Z,31.25
2018-08-03T19:26:23.933Z,31.16
2018-08-03T19:28:52.562Z,31.12
2018-08-03T19:31:21.022Z,30.94
2018-08-03T19:33:49.434Z,30.85
2018-08-03T19:36:17.915Z,30.80
2018-08-03T19:38:46.334Z,30.81
2018-08-03T19:41:14.778Z,30.69
2018-08-03T19:43:43.208Z,30.54
2018-08-03T19:46:11.631Z,30.28
2018-08-03T19:48:40.090Z,30.21
2018-08-03T19:51:08.573Z,30.29
2018-08-03T19:53:37.082Z,30.19
2018-08-03T19:56:05.573Z,30.02
2018-08-03T19:58:34.010Z,29.88
2018-08-03T20:01:02.471Z,29.93
2018-08-03T20:03:30.967Z,29.94
2018-08-03T20:05:59.427Z,29.90
2018-08-03T20:08:27.945Z,29.82
2018-08-03T20:10:56.418Z,29.66
2018-08-03T20:13:24.953Z,29.58
2018-08-03T20:15:53.596Z,29.47
2018-08-03T20:18:22.079Z,29.54
2018-08-03T20:20:50.516Z,29.50
2018-08-03T20:23:19.063Z,29.37
2018-08-03T20:25:47.570Z,29.32
2018-08-03T20:28:16.113Z,29.27
2018-08-03T20:30:44.636Z,29.09
2018-08-03T20:33:13.018Z,29.15
2018-08-03T20:35:41.448Z,29.03
2018-08-03T20:38:09.899Z,28.94
2018-08-03T20:40:38.389Z,28.88
2018-08-03T20:43:07.293Z,28.87
2018-08-03T20:45:35.822Z,28.90
2018-08-03T20:48:04.281Z,28.83
2018-08-03T20:50:32.689Z,28.74
2018-08-03T20:53:01.077Z,28.66
2018-08-03T20:55:29.556Z,28.52
2018-08-03T20:57:57.897Z,28.58
2018-08-03T21:00:26.481Z,28.46
2018-08-03T21:02:54.888Z,28.34
2018-08-03T21:05:23.317Z,28.24
2018-08-03T21:07:51.750Z,28.09
2018-08-03T21:10:20.145Z,27.93
2018-08-03T21:12:48.565Z,27.79
2018-08-03T21:15:16.993Z,27.67
2018-08-03T21:17:45.388Z,27.57
2018-08-03T21:20:13.798Z,27.36
2018-08-03T21:22:42.186Z,27.25
2018-08-03T21:25:10.606Z,27.19
2018-08-03T21:27:39.016Z,27.18
2018-08-03T21:30:08.937Z,27.22
2018-08-03T21:32:37.359Z,27.14
2018-08-03T21:35:05.965Z,27.28
2018-08-03T21:37:34.419Z,27.22
2018-08-03T21:40:02.753Z,27.27
2018-08-03T21:42:31.458Z,27.32
2018-08-03T21:44:59.895Z,27.38
2018-08-03T21:47:28.333Z,27.46
2018-08-03T21:49:56.729Z,27.43
2018-08-03T21:52:25.209Z,27.35
2018-08-03T21:54:53.653Z,27.28
2018-08-03T21:57:22.083Z,27.20
2018-08-03T21:59:50.765Z,27.13
2018-08-03T22:02:19.228Z,27.00
2018-08-03T22:04:48.436Z,27.05
2018-08-03T22:07:16.862Z,26.99
2018-08-03T22:09:45.877Z,27.02
2018-08-03T22:12:14.336Z,26.98
2018-08-03T22:14:42.713Z,26.98
2018-08-03T22:17:11.121Z,26.91
2018-08-03T22:19:39.557Z,26.86
2018-08-03T22:22:08.141Z,26.74
2018-08-03T22:24:37.070Z,26.71
2018-08-03T22:27:05.536Z,26.67
2018-08-03T22:29:34.039Z,26.57
2018-08-03T22:32:02.424Z,26.51
2018-08-03T22:34:30.837Z,26.46
2018-08-03T22:36:59.202Z,26.47
2018-08-03T22:39:27.724Z,26.44
2018-08-03T22:41:56.158Z,26.37
2018-08-03T22:44:24.620Z,26.39
2018-08-03T22:46:53.033Z,26.26
2018-08-03T22:49:21.493Z,26.30
2018-08-03T22:51:49.889Z,26.21
2018-08-03T22:54:18.348Z,26.11
2018-08-03T22:56:46.777Z,26.07
2018-08-03T22:59:15.197Z,26.07
2018-08-03T23:01:43.693Z,25.87
2018-08-03T23:04:12.165Z,25.85
2018-08-03T23:06:40.597Z,25.67
2018-08-03T23:09:09.765Z,25.62
2018-08-03T23:11:38.361Z,25.79
2018-08-03T23:14:06.861Z,25.69
2018-08-03T23:16:35.301Z,25.69
2018-08-03T23:19:03.688Z,25.68
2018-08-03T23:21:32.149Z,25.47
2018-08-03T23:24:00.561Z,25.42
2018-08-03T23:26:28.997Z,25.24
2018-08-03T23:28:57.393Z,25.10
2018-08-03T23:31:25.882Z,25.01
2018-08-03T23:33:54.582Z,24.94
2018-08-03T23:36:23.237Z,24.95
2018-08-03T23:38:51.677Z,24.82
2018-08-03T23:41:20.133Z,24.79
2018-08-03T23:43:48.545Z,24.71
2018-08-03T23:46:16.989Z,24.65
2018-08-03T23:48:45.389Z,24.76
2018-08-03T23:51:13.828Z,24.68
2018-08-03T23:53:42.292Z,24.80
2018-08-03T23:56:10.717Z,24.76
2018-08-03T23:58:39.135Z,24.46
